KHPN

Westchester County Airport

White Plains, New York, USA
METAR KHPN 201456Z 25005KT 1SM R16/P6000FT BR VV003 09/09 A3032 RMK AO2 SLP273 T00940094 51010
Observed Flight Rules
Feb-20 @ 14:56 UTC (2 hours ago) Instrument Flight Rules
Wind Visibility Clouds Conditions
250° at 5 knots 1 miles
  • Vertical visibility at 300' AGL
  • Mist
Temperatures Readings
Current 9°C / 48°F
Dewpoint 9°C / 48°F
Humidity 100%
Altimeter 30.32" Hg
Pressure 1027.3 hPa
Elevation 121
METAR KHPN 201456Z 25005KT 1SM R16/P6000FT BR VV003 09/09 A3032 RMK AO2 SLP273 T00940094 51010
Observed Flight Rules
Feb-20 @ 14:56 UTC
(2 hours ago)
LIFR
Wind Visibility
250° at 5 knots 1 miles
Clouds
  • Vertical visibility at 300' AGL
Conditions
  • Mist
Temperature Dewpoint
9°C / 48°F 9°C / 48°F
Humidity Altimeter Pressure
100% 30.32" Hg 1027.3 hPa